sensor_id;sensor_type;location;lat;lon;timestamp;temperature;humidity
29031;DHT22;16122;50.236;11.734;2022-09-01T00:02:23;19.60;65.80
29031;DHT22;16122;50.236;11.734;2022-09-01T00:04:52;19.60;65.80
29031;DHT22;16122;50.236;11.734;2022-09-01T00:07:24;19.60;65.70
29031;DHT22;16122;50.236;11.734;2022-09-01T00:09:51;19.60;65.50
29031;DHT22;16122;50.236;11.734;2022-09-01T00:12:17;19.60;65.60
29031;DHT22;16122;50.236;11.734;2022-09-01T00:14:43;19.60;65.50
29031;DHT22;16122;50.236;11.734;2022-09-01T00:17:10;19.60;65.50
29031;DHT22;16122;50.236;11.734;2022-09-01T00:19:37;19.60;65.50
29031;DHT22;16122;50.236;11.734;2022-09-01T00:22:05;19.60;65.50
29031;DHT22;16122;50.236;11.734;2022-09-01T00:24:32;19.60;65.50
29031;DHT22;16122;50.236;11.734;2022-09-01T00:26:57;19.60;65.50
29031;DHT22;16122;50.236;11.734;2022-09-01T00:29:25;19.60;65.50
29031;DHT22;16122;50.236;11.734;2022-09-01T00:31:51;19.50;65.40
29031;DHT22;16122;50.236;11.734;2022-09-01T00:34:18;19.60;65.50
29031;DHT22;16122;50.236;11.734;2022-09-01T00:36:44;19.60;65.50
29031;DHT22;16122;50.236;11.734;2022-09-01T00:39:10;19.60;65.40
29031;DHT22;16122;50.236;11.734;2022-09-01T00:41:38;19.60;65.40
29031;DHT22;16122;50.236;11.734;2022-09-01T00:44:08;19.60;65.60
29031;DHT22;16122;50.236;11.734;2022-09-01T00:46:39;19.60;65.50
29031;DHT22;16122;50.236;11.734;2022-09-01T00:51:57;19.60;65.40
29031;DHT22;16122;50.236;11.734;2022-09-01T00:54:31;19.60;65.50
29031;DHT22;16122;50.236;11.734;2022-09-01T00:56:58;19.60;65.40
29031;DHT22;16122;50.236;11.734;2022-09-01T00:59:25;19.60;65.50
29031;DHT22;16122;50.236;11.734;2022-09-01T01:01:52;19.60;65.40
29031;DHT22;16122;50.236;11.734;2022-09-01T01:04:19;19.60;65.50
29031;DHT22;16122;50.236;11.734;2022-09-01T01:06:48;19.60;65.40
29031;DHT22;16122;50.236;11.734;2022-09-01T01:09:19;19.50;65.30
29031;DHT22;16122;50.236;11.734;2022-09-01T01:11:47;19.60;65.40
29031;DHT22;16122;50.236;11.734;2022-09-01T01:14:14;19.60;65.40
29031;DHT22;16122;50.236;11.734;2022-09-01T01:16:44;19.50;65.30
29031;DHT22;16122;50.236;11.734;2022-09-01T01:19:38;19.60;65.50
29031;DHT22;16122;50.236;11.734;2022-09-01T01:25:24;19.60;65.40
29031;DHT22;16122;50.236;11.734;2022-09-01T01:27:50;19.60;65.40
29031;DHT22;16122;50.236;11.734;2022-09-01T01:30:18;19.50;65.30
29031;DHT22;16122;50.236;11.734;2022-09-01T01:32:45;19.50;65.30
29031;DHT22;16122;50.236;11.734;2022-09-01T01:35:15;19.50;65.20
29031;DHT22;16122;50.236;11.734;2022-09-01T01:37:46;19.50;65.30
29031;DHT22;16122;50.236;11.734;2022-09-01T01:40:17;19.50;65.30
29031;DHT22;16122;50.236;11.734;2022-09-01T01:42:48;19.50;65.30
29031;DHT22;16122;50.236;11.734;2022-09-01T01:45:17;19.60;65.40
29031;DHT22;16122;50.236;11.734;2022-09-01T01:47:46;19.50;65.30
29031;DHT22;16122;50.236;11.734;2022-09-01T01:50:16;19.60;65.30
29031;DHT22;16122;50.236;11.734;2022-09-01T01:52:43;19.70;65.40
29031;DHT22;16122;50.236;11.734;2022-09-01T01:55:10;19.50;65.20
29031;DHT22;16122;50.236;11.734;2022-09-01T01:57:40;19.60;65.30
29031;DHT22;16122;50.236;11.734;2022-09-01T02:00:21;19.50;65.20
29031;DHT22;16122;50.236;11.734;2022-09-01T02:02:49;19.50;65.20
29031;DHT22;16122;50.236;11.734;2022-09-01T02:05:32;19.50;65.20
29031;DHT22;16122;50.236;11.734;2022-09-01T02:08:03;19.50;65.20
29031;DHT22;16122;50.236;11.734;2022-09-01T02:10:33;19.50;65.20
29031;DHT22;16122;50.236;11.734;2022-09-01T02:13:01;19.50;65.20
29031;DHT22;16122;50.236;11.734;2022-09-01T02:15:33;19.50;65.20
29031;DHT22;16122;50.236;11.734;2022-09-01T02:18:01;19.50;65.20
29031;DHT22;16122;50.236;11.734;2022-09-01T02:20:27;19.50;65.20
29031;DHT22;16122;50.236;11.734;2022-09-01T02:22:58;19.50;65.20
29031;DHT22;16122;50.236;11.734;2022-09-01T02:25:41;19.50;65.20
29031;DHT22;16122;50.236;11.734;2022-09-01T02:28:11;19.50;65.20
29031;DHT22;16122;50.236;11.734;2022-09-01T02:30:43;19.30;65.00
29031;DHT22;16122;50.236;11.734;2022-09-01T02:33:11;19.50;65.20
29031;DHT22;16122;50.236;11.734;2022-09-01T02:35:48;19.50;65.10
29031;DHT22;16122;50.236;11.734;2022-09-01T02:38:15;19.50;65.20
29031;DHT22;16122;50.236;11.734;2022-09-01T02:40:43;19.50;65.10
29031;DHT22;16122;50.236;11.734;2022-09-01T02:43:14;19.50;65.10
29031;DHT22;16122;50.236;11.734;2022-09-01T02:45:50;19.50;65.10
29031;DHT22;16122;50.236;11.734;2022-09-01T02:48:28;19.50;65.10
29031;DHT22;16122;50.236;11.734;2022-09-01T02:51:02;19.50;65.10
29031;DHT22;16122;50.236;11.734;2022-09-01T02:53:30;19.50;65.10
29031;DHT22;16122;50.236;11.734;2022-09-01T02:55:56;19.50;65.10
29031;DHT22;16122;50.236;11.734;2022-09-01T02:58:26;19.50;65.10
29031;DHT22;16122;50.236;11.734;2022-09-01T03:00:54;19.50;65.10
29031;DHT22;16122;50.236;11.734;2022-09-01T03:03:20;19.50;65.10
29031;DHT22;16122;50.236;11.734;2022-09-01T03:05:49;19.50;65.10
29031;DHT22;16122;50.236;11.734;2022-09-01T03:08:23;19.50;65.10
29031;DHT22;16122;50.236;11.734;2022-09-01T03:10:50;19.50;65.10
29031;DHT22;16122;50.236;11.734;2022-09-01T03:13:20;19.40;65.00
29031;DHT22;16122;50.236;11.734;2022-09-01T03:15:47;19.40;65.00
29031;DHT22;16122;50.236;11.734;2022-09-01T03:18:14;19.40;65.00
29031;DHT22;16122;50.236;11.734;2022-09-01T03:20:42;19.40;77.60
29031;DHT22;16122;50.236;11.734;2022-09-01T03:23:12;19.30;66.30
29031;DHT22;16122;50.236;11.734;2022-09-01T03:25:41;19.40;65.20
29031;DHT22;16122;50.236;11.734;2022-09-01T03:28:08;19.40;65.10
29031;DHT22;16122;50.236;11.734;2022-09-01T03:30:43;19.40;65.00
29031;DHT22;16122;50.236;11.734;2022-09-01T03:33:09;19.50;65.10
29031;DHT22;16122;50.236;11.734;2022-09-01T03:35:35;19.40;65.00
29031;DHT22;16122;50.236;11.734;2022-09-01T03:38:03;19.40;65.00
29031;DHT22;16122;50.236;11.734;2022-09-01T03:40:32;19.40;65.00
29031;DHT22;16122;50.236;11.734;2022-09-01T03:42:59;19.40;65.80
29031;DHT22;16122;50.236;11.734;2022-09-01T03:45:25;19.40;65.00
29031;DHT22;16122;50.236;11.734;2022-09-01T03:47:52;19.40;65.00
29031;DHT22;16122;50.236;11.734;2022-09-01T03:50:21;19.40;65.10
29031;DHT22;16122;50.236;11.734;2022-09-01T03:52:51;19.40;65.10
29031;DHT22;16122;50.236;11.734;2022-09-01T03:55:20;19.40;65.20
29031;DHT22;16122;50.236;11.734;2022-09-01T03:57:53;19.40;65.20
29031;DHT22;16122;50.236;11.734;2022-09-01T04:00:23;19.40;65.30
29031;DHT22;16122;50.236;11.734;2022-09-01T04:02:52;19.40;65.50
29031;DHT22;16122;50.236;11.734;2022-09-01T04:05:27;19.40;65.60
29031;DHT22;16122;50.236;11.734;2022-09-01T04:07:56;19.30;65.50
29031;DHT22;16122;50.236;11.734;2022-09-01T04:10:23;19.40;65.60
29031;DHT22;16122;50.236;11.734;2022-09-01T04:12:49;19.40;65.70
29031;DHT22;16122;50.236;11.734;2022-09-01T04:15:17;19.40;65.80
29031;DHT22;16122;50.236;11.734;2022-09-01T04:17:45;19.40;65.80
29031;DHT22;16122;50.236;11.734;2022-09-01T04:20:39;19.40;65.80
29031;DHT22;16122;50.236;11.734;2022-09-01T04:23:21;19.40;65.90
29031;DHT22;16122;50.236;11.734;2022-09-01T04:26:11;19.20;65.50
29031;DHT22;16122;50.236;11.734;2022-09-01T04:28:45;19.40;65.80
29031;DHT22;16122;50.236;11.734;2022-09-01T04:31:15;19.40;66.50
29031;DHT22;16122;50.236;11.734;2022-09-01T04:33:45;19.40;66.60
29031;DHT22;16122;50.236;11.734;2022-09-01T04:36:22;19.40;66.70
29031;DHT22;16122;50.236;11.734;2022-09-01T04:38:51;19.40;66.80
29031;DHT22;16122;50.236;11.734;2022-09-01T04:41:24;19.40;66.80
29031;DHT22;16122;50.236;11.734;2022-09-01T04:43:52;19.40;66.80
29031;DHT22;16122;50.236;11.734;2022-09-01T04:46:23;19.40;66.80
29031;DHT22;16122;50.236;11.734;2022-09-01T04:48:52;19.40;66.60
29031;DHT22;16122;50.236;11.734;2022-09-01T04:51:18;19.40;67.00
29031;DHT22;16122;50.236;11.734;2022-09-01T04:53:54;19.40;67.20
29031;DHT22;16122;50.236;11.734;2022-09-01T04:56:24;19.30;66.90
29031;DHT22;16122;50.236;11.734;2022-09-01T04:59:04;19.40;66.70
29031;DHT22;16122;50.236;11.734;2022-09-01T05:01:34;19.50;66.70
29031;DHT22;16122;50.236;11.734;2022-09-01T05:04:19;19.40;66.50
29031;DHT22;16122;50.236;11.734;2022-09-01T05:06:52;19.50;66.50
29031;DHT22;16122;50.236;11.734;2022-09-01T05:09:24;19.40;66.40
29031;DHT22;16122;50.236;11.734;2022-09-01T05:11:50;19.40;66.40
29031;DHT22;16122;50.236;11.734;2022-09-01T05:14:21;19.40;66.30
29031;DHT22;16122;50.236;11.734;2022-09-01T05:16:48;19.40;66.30
29031;DHT22;16122;50.236;11.734;2022-09-01T05:19:16;19.40;66.30
29031;DHT22;16122;50.236;11.734;2022-09-01T05:21:47;19.40;66.20
29031;DHT22;16122;50.236;11.734;2022-09-01T05:24:16;19.40;66.20
29031;DHT22;16122;50.236;11.734;2022-09-01T05:26:44;19.40;66.20
29031;DHT22;16122;50.236;11.734;2022-09-01T05:29:13;19.40;66.20
29031;DHT22;16122;50.236;11.734;2022-09-01T05:31:46;19.40;66.10
29031;DHT22;16122;50.236;11.734;2022-09-01T05:34:13;19.50;66.20
29031;DHT22;16122;50.236;11.734;2022-09-01T05:36:48;19.30;66.00
29031;DHT22;16122;50.236;11.734;2022-09-01T05:39:16;19.40;66.00
29031;DHT22;16122;50.236;11.734;2022-09-01T05:41:42;19.30;65.90
29031;DHT22;16122;50.236;11.734;2022-09-01T05:44:08;19.40;66.00
29031;DHT22;16122;50.236;11.734;2022-09-01T05:46:37;19.40;66.00
29031;DHT22;16122;50.236;11.734;2022-09-01T05:49:05;19.00;65.50
29031;DHT22;16122;50.236;11.734;2022-09-01T05:51:33;19.40;66.00
29031;DHT22;16122;50.236;11.734;2022-09-01T05:54:02;19.40;65.90
29031;DHT22;16122;50.236;11.734;2022-09-01T05:56:30;19.40;65.90
29031;DHT22;16122;50.236;11.734;2022-09-01T05:58:59;19.40;65.90
29031;DHT22;16122;50.236;11.734;2022-09-01T06:01:27;19.40;65.80
29031;DHT22;16122;50.236;11.734;2022-09-01T06:04:00;19.40;65.80
29031;DHT22;16122;50.236;11.734;2022-09-01T06:06:41;19.40;65.70
29031;DHT22;16122;50.236;11.734;2022-09-01T06:09:15;19.40;65.70
29031;DHT22;16122;50.236;11.734;2022-09-01T06:11:46;19.40;65.60
29031;DHT22;16122;50.236;11.734;2022-09-01T06:14:16;19.40;65.60
29031;DHT22;16122;50.236;11.734;2022-09-01T06:16:45;19.40;65.50
29031;DHT22;16122;50.236;11.734;2022-09-01T06:19:13;19.40;65.50
29031;DHT22;16122;50.236;11.734;2022-09-01T06:21:43;19.40;65.40
29031;DHT22;16122;50.236;11.734;2022-09-01T06:24:10;19.20;65.20
29031;DHT22;16122;50.236;11.734;2022-09-01T06:26:36;19.50;65.50
29031;DHT22;16122;50.236;11.734;2022-09-01T06:29:07;19.40;65.40
29031;DHT22;16122;50.236;11.734;2022-09-01T06:31:41;19.50;66.30
29031;DHT22;16122;50.236;11.734;2022-09-01T06:34:10;19.50;65.50
29031;DHT22;16122;50.236;11.734;2022-09-01T06:36:45;19.50;65.50
29031;DHT22;16122;50.236;11.734;2022-09-01T06:39:13;19.50;65.50
29031;DHT22;16122;50.236;11.734;2022-09-01T06:41:52;19.50;65.60
29031;DHT22;16122;50.236;11.734;2022-09-01T06:44:24;19.50;65.50
29031;DHT22;16122;50.236;11.734;2022-09-01T06:47:04;19.60;65.50
29031;DHT22;16122;50.236;11.734;2022-09-01T06:49:30;19.50;65.40
29031;DHT22;16122;50.236;11.734;2022-09-01T06:52:01;19.50;65.40
29031;DHT22;16122;50.236;11.734;2022-09-01T06:54:30;19.50;65.40
29031;DHT22;16122;50.236;11.734;2022-09-01T06:57:02;19.50;65.60
29031;DHT22;16122;50.236;11.734;2022-09-01T06:59:30;19.40;65.40
29031;DHT22;16122;50.236;11.734;2022-09-01T07:02:01;19.50;65.60
29031;DHT22;16122;50.236;11.734;2022-09-01T07:04:44;19.50;65.30
29031;DHT22;16122;50.236;11.734;2022-09-01T07:07:11;19.50;65.30
29031;DHT22;16122;50.236;11.734;2022-09-01T07:10:10;19.50;65.40
29031;DHT22;16122;50.236;11.734;2022-09-01T07:12:44;19.50;65.60
29031;DHT22;16122;50.236;11.734;2022-09-01T07:15:12;19.50;65.70
29031;DHT22;16122;50.236;11.734;2022-09-01T07:17:45;19.60;66.30
29031;DHT22;16122;50.236;11.734;2022-09-01T07:20:14;19.50;66.70
29031;DHT22;16122;50.236;11.734;2022-09-01T07:22:41;19.50;67.00
29031;DHT22;16122;50.236;11.734;2022-09-01T07:25:08;19.50;65.70
29031;DHT22;16122;50.236;11.734;2022-09-01T07:27:56;19.40;66.00
29031;DHT22;16122;50.236;11.734;2022-09-01T07:30:26;19.50;67.30
29031;DHT22;16122;50.236;11.734;2022-09-01T07:32:53;19.60;68.20
29031;DHT22;16122;50.236;11.734;2022-09-01T07:35:21;19.50;71.70
29031;DHT22;16122;50.236;11.734;2022-09-01T07:37:48;19.50;65.40
29031;DHT22;16122;50.236;11.734;2022-09-01T07:40:17;19.50;65.30
29031;DHT22;16122;50.236;11.734;2022-09-01T07:43:17;19.50;65.20
29031;DHT22;16122;50.236;11.734;2022-09-01T07:46:05;19.50;65.20
29031;DHT22;16122;50.236;11.734;2022-09-01T07:48:31;19.50;65.20
29031;DHT22;16122;50.236;11.734;2022-09-01T07:50:57;19.60;65.30
29031;DHT22;16122;50.236;11.734;2022-09-01T07:53:27;19.60;65.30
29031;DHT22;16122;50.236;11.734;2022-09-01T07:55:58;19.60;65.30
29031;DHT22;16122;50.236;11.734;2022-09-01T07:58:27;19.60;65.30
29031;DHT22;16122;50.236;11.734;2022-09-01T08:01:00;19.60;65.20
29031;DHT22;16122;50.236;11.734;2022-09-01T08:03:29;19.60;65.20
29031;DHT22;16122;50.236;11.734;2022-09-01T08:05:55;19.60;65.20
29031;DHT22;16122;50.236;11.734;2022-09-01T08:08:26;19.60;65.20
29031;DHT22;16122;50.236;11.734;2022-09-01T08:10:52;19.60;65.20
29031;DHT22;16122;50.236;11.734;2022-09-01T08:13:18;19.60;65.20
29031;DHT22;16122;50.236;11.734;2022-09-01T08:15:44;19.60;65.30
29031;DHT22;16122;50.236;11.734;2022-09-01T08:18:11;19.60;65.30
29031;DHT22;16122;50.236;11.734;2022-09-01T08:20:39;19.50;65.20
29031;DHT22;16122;50.236;11.734;2022-09-01T08:23:28;19.60;65.20
29031;DHT22;16122;50.236;11.734;2022-09-01T08:25:54;19.60;65.10
29031;DHT22;16122;50.236;11.734;2022-09-01T08:28:20;19.60;65.10
29031;DHT22;16122;50.236;11.734;2022-09-01T08:30:46;19.60;65.10
29031;DHT22;16122;50.236;11.734;2022-09-01T08:33:16;19.60;65.00
29031;DHT22;16122;50.236;11.734;2022-09-01T08:35:47;19.60;65.10
29031;DHT22;16122;50.236;11.734;2022-09-01T08:38:14;19.60;65.00
29031;DHT22;16122;50.236;11.734;2022-09-01T08:40:42;19.60;65.00
29031;DHT22;16122;50.236;11.734;2022-09-01T08:46:16;19.70;65.10
29031;DHT22;16122;50.236;11.734;2022-09-01T08:48:47;19.70;65.10
29031;DHT22;16122;50.236;11.734;2022-09-01T08:54:30;19.70;65.00
29031;DHT22;16122;50.236;11.734;2022-09-01T08:57:02;19.70;64.90
29031;DHT22;16122;50.236;11.734;2022-09-01T08:59:51;19.70;64.90
29031;DHT22;16122;50.236;11.734;2022-09-01T09:13:44;19.70;64.80
29031;DHT22;16122;50.236;11.734;2022-09-01T09:16:17;19.70;64.80
29031;DHT22;16122;50.236;11.734;2022-09-01T09:18:55;19.70;64.80
29031;DHT22;16122;50.236;11.734;2022-09-01T09:21:35;19.70;64.70
29031;DHT22;16122;50.236;11.734;2022-09-01T09:26:50;19.70;64.60
29031;DHT22;16122;50.236;11.734;2022-09-01T09:29:16;19.70;64.50
29031;DHT22;16122;50.236;11.734;2022-09-01T09:31:42;19.80;64.50
29031;DHT22;16122;50.236;11.734;2022-09-01T09:34:34;19.70;64.50
29031;DHT22;16122;50.236;11.734;2022-09-01T09:40:12;19.80;64.40
29031;DHT22;16122;50.236;11.734;2022-09-01T09:42:59;19.80;64.40
29031;DHT22;16122;50.236;11.734;2022-09-01T09:47:56;19.80;64.40
29031;DHT22;16122;50.236;11.734;2022-09-01T09:50:40;19.80;64.40
29031;DHT22;16122;50.236;11.734;2022-09-01T09:53:14;19.80;64.30
29031;DHT22;16122;50.236;11.734;2022-09-01T09:58:39;19.80;64.30
29031;DHT22;16122;50.236;11.734;2022-09-01T10:01:32;19.80;64.40
29031;DHT22;16122;50.236;11.734;2022-09-01T10:04:00;19.80;64.30
29031;DHT22;16122;50.236;11.734;2022-09-01T10:06:38;19.80;64.40
29031;DHT22;16122;50.236;11.734;2022-09-01T10:11:55;19.80;64.50
29031;DHT22;16122;50.236;11.734;2022-09-01T10:14:33;19.80;64.50
29031;DHT22;16122;50.236;11.734;2022-09-01T10:17:11;19.80;64.40
29031;DHT22;16122;50.236;11.734;2022-09-01T10:19:45;19.80;64.40
29031;DHT22;16122;50.236;11.734;2022-09-01T10:22:12;19.80;64.50
29031;DHT22;16122;50.236;11.734;2022-09-01T10:24:38;19.80;64.40
29031;DHT22;16122;50.236;11.734;2022-09-01T10:27:32;19.80;64.50
29031;DHT22;16122;50.236;11.734;2022-09-01T10:30:18;19.80;64.50
29031;DHT22;16122;50.236;11.734;2022-09-01T10:37:46;19.80;64.60
29031;DHT22;16122;50.236;11.734;2022-09-01T10:40:34;19.70;64.50
29031;DHT22;16122;50.236;11.734;2022-09-01T10:43:24;19.70;64.60
29031;DHT22;16122;50.236;11.734;2022-09-01T10:45:52;19.80;64.70
29031;DHT22;16122;50.236;11.734;2022-09-01T10:48:21;19.80;64.70
29031;DHT22;16122;50.236;11.734;2022-09-01T11:04:14;19.80;64.60
29031;DHT22;16122;50.236;11.734;2022-09-01T11:07:01;19.80;64.80
29031;DHT22;16122;50.236;11.734;2022-09-01T11:09:34;19.80;65.00
29031;DHT22;16122;50.236;11.734;2022-09-01T11:14:58;19.80;64.70
29031;DHT22;16122;50.236;11.734;2022-09-01T11:17:36;19.80;64.90
29031;DHT22;16122;50.236;11.734;2022-09-01T11:20:24;19.80;65.50
29031;DHT22;16122;50.236;11.734;2022-09-01T11:23:25;19.80;65.00
29031;DHT22;16122;50.236;11.734;2022-09-01T11:36:03;19.80;65.60
29031;DHT22;16122;50.236;11.734;2022-09-01T11:38:57;19.80;64.70
29031;DHT22;16122;50.236;11.734;2022-09-01T11:41:27;19.80;64.30
29031;DHT22;16122;50.236;11.734;2022-09-01T11:44:00;19.80;64.10
29031;DHT22;16122;50.236;11.734;2022-09-01T11:46:29;19.80;64.00
29031;DHT22;16122;50.236;11.734;2022-09-01T11:48:59;19.80;64.20
29031;DHT22;16122;50.236;11.734;2022-09-01T11:51:27;19.80;64.30
29031;DHT22;16122;50.236;11.734;2022-09-01T11:53:58;19.80;64.80
29031;DHT22;16122;50.236;11.734;2022-09-01T11:56:26;19.80;69.80
29031;DHT22;16122;50.236;11.734;2022-09-01T11:58:52;19.80;64.60
29031;DHT22;16122;50.236;11.734;2022-09-01T12:01:20;19.90;64.60
29031;DHT22;16122;50.236;11.734;2022-09-01T12:03:49;19.80;65.60
29031;DHT22;16122;50.236;11.734;2022-09-01T12:06:23;19.90;66.00
29031;DHT22;16122;50.236;11.734;2022-09-01T12:09:07;19.90;65.30
29031;DHT22;16122;50.236;11.734;2022-09-01T12:11:34;19.90;65.20
29031;DHT22;16122;50.236;11.734;2022-09-01T12:14:06;20.00;66.00
29031;DHT22;16122;50.236;11.734;2022-09-01T12:16:34;19.90;67.10
29031;DHT22;16122;50.236;11.734;2022-09-01T12:19:02;19.90;66.70
29031;DHT22;16122;50.236;11.734;2022-09-01T12:21:31;19.90;66.80
29031;DHT22;16122;50.236;11.734;2022-09-01T12:24:19;19.80;67.40
29031;DHT22;16122;50.236;11.734;2022-09-01T12:26:47;19.90;67.40
29031;DHT22;16122;50.236;11.734;2022-09-01T12:29:15;19.90;66.70
29031;DHT22;16122;50.236;11.734;2022-09-01T12:31:44;19.80;66.30
29031;DHT22;16122;50.236;11.734;2022-09-01T12:37:19;19.90;65.80
29031;DHT22;16122;50.236;11.734;2022-09-01T12:39:49;19.90;66.70
29031;DHT22;16122;50.236;11.734;2022-09-01T12:44:46;19.90;66.00
29031;DHT22;16122;50.236;11.734;2022-09-01T12:50:04;19.90;66.00
29031;DHT22;16122;50.236;11.734;2022-09-01T12:52:32;19.90;66.30
29031;DHT22;16122;50.236;11.734;2022-09-01T13:00:19;19.90;66.00
29031;DHT22;16122;50.236;11.734;2022-09-01T13:08:05;20.00;66.60
29031;DHT22;16122;50.236;11.734;2022-09-01T13:10:36;20.00;66.60
29031;DHT22;16122;50.236;11.734;2022-09-01T13:13:06;19.90;66.10
29031;DHT22;16122;50.236;11.734;2022-09-01T13:15:35;19.90;65.90
29031;DHT22;16122;50.236;11.734;2022-09-01T13:18:01;19.90;65.90
29031;DHT22;16122;50.236;11.734;2022-09-01T13:20:27;19.90;65.80
29031;DHT22;16122;50.236;11.734;2022-09-01T13:22:53;20.00;67.30
29031;DHT22;16122;50.236;11.734;2022-09-01T13:25:21;19.90;64.60
29031;DHT22;16122;50.236;11.734;2022-09-01T13:27:47;19.90;64.30
29031;DHT22;16122;50.236;11.734;2022-09-01T13:30:18;19.90;64.20
29031;DHT22;16122;50.236;11.734;2022-09-01T13:32:46;19.90;63.90
29031;DHT22;16122;50.236;11.734;2022-09-01T13:35:15;19.90;63.80
29031;DHT22;16122;50.236;11.734;2022-09-01T13:37:41;19.90;63.70
29031;DHT22;16122;50.236;11.734;2022-09-01T13:40:08;19.90;63.70
29031;DHT22;16122;50.236;11.734;2022-09-01T13:42:42;19.90;64.40
29031;DHT22;16122;50.236;11.734;2022-09-01T13:45:09;19.90;63.50
29031;DHT22;16122;50.236;11.734;2022-09-01T13:47:41;19.90;63.50
29031;DHT22;16122;50.236;11.734;2022-09-01T13:50:09;19.90;63.40
29031;DHT22;16122;50.236;11.734;2022-09-01T13:52:40;19.90;63.30
29031;DHT22;16122;50.236;11.734;2022-09-01T13:55:08;19.90;63.20
29031;DHT22;16122;50.236;11.734;2022-09-01T13:57:35;19.90;63.20
29031;DHT22;16122;50.236;11.734;2022-09-01T14:00:02;20.00;63.30
29031;DHT22;16122;50.236;11.734;2022-09-01T14:02:39;19.90;63.10
29031;DHT22;16122;50.236;11.734;2022-09-01T14:05:07;20.00;63.30
29031;DHT22;16122;50.236;11.734;2022-09-01T14:07:33;19.90;63.10
29031;DHT22;16122;50.236;11.734;2022-09-01T14:09:59;19.90;63.10
29031;DHT22;16122;50.236;11.734;2022-09-01T14:12:25;19.90;63.10
29031;DHT22;16122;50.236;11.734;2022-09-01T14:14:51;19.90;63.10
29031;DHT22;16122;50.236;11.734;2022-09-01T14:17:17;19.90;63.10
29031;DHT22;16122;50.236;11.734;2022-09-01T14:19:51;20.00;63.20
29031;DHT22;16122;50.236;11.734;2022-09-01T14:22:17;20.00;63.20
29031;DHT22;16122;50.236;11.734;2022-09-01T14:24:42;20.00;63.20
29031;DHT22;16122;50.236;11.734;2022-09-01T14:27:08;20.00;63.20
29031;DHT22;16122;50.236;11.734;2022-09-01T14:29:35;20.00;63.30
29031;DHT22;16122;50.236;11.734;2022-09-01T14:32:01;20.00;63.20
29031;DHT22;16122;50.236;11.734;2022-09-01T14:34:28;20.00;63.10
29031;DHT22;16122;50.236;11.734;2022-09-01T14:36:55;19.90;63.00
29031;DHT22;16122;50.236;11.734;2022-09-01T14:39:23;20.00;63.10
29031;DHT22;16122;50.236;11.734;2022-09-01T14:41:49;19.90;63.00
29031;DHT22;16122;50.236;11.734;2022-09-01T14:44:16;20.00;63.10
29031;DHT22;16122;50.236;11.734;2022-09-01T14:46:42;20.00;63.10
29031;DHT22;16122;50.236;11.734;2022-09-01T14:49:08;20.00;63.10
29031;DHT22;16122;50.236;11.734;2022-09-01T14:51:35;20.00;63.10
29031;DHT22;16122;50.236;11.734;2022-09-01T14:54:03;20.00;63.00
29031;DHT22;16122;50.236;11.734;2022-09-01T14:56:29;20.00;63.00
29031;DHT22;16122;50.236;11.734;2022-09-01T14:58:55;19.90;62.90
29031;DHT22;16122;50.236;11.734;2022-09-01T15:01:26;20.00;63.10
29031;DHT22;16122;50.236;11.734;2022-09-01T15:03:53;20.00;62.90
29031;DHT22;16122;50.236;11.734;2022-09-01T15:06:21;20.00;62.90
29031;DHT22;16122;50.236;11.734;2022-09-01T15:08:48;20.00;62.90
29031;DHT22;16122;50.236;11.734;2022-09-01T15:11:17;20.00;62.90
29031;DHT22;16122;50.236;11.734;2022-09-01T15:13:43;20.00;62.90
29031;DHT22;16122;50.236;11.734;2022-09-01T15:16:20;20.00;62.90
29031;DHT22;16122;50.236;11.734;2022-09-01T15:18:46;20.00;62.90
29031;DHT22;16122;50.236;11.734;2022-09-01T15:21:26;20.00;62.90
29031;DHT22;16122;50.236;11.734;2022-09-01T15:23:54;20.00;62.90
29031;DHT22;16122;50.236;11.734;2022-09-01T15:26:21;20.00;62.90
29031;DHT22;16122;50.236;11.734;2022-09-01T15:28:48;20.00;62.80
29031;DHT22;16122;50.236;11.734;2022-09-01T15:31:15;20.00;62.80
29031;DHT22;16122;50.236;11.734;2022-09-01T15:33:42;20.00;62.80
29031;DHT22;16122;50.236;11.734;2022-09-01T15:36:15;19.90;62.70
29031;DHT22;16122;50.236;11.734;2022-09-01T15:38:41;20.00;62.80
29031;DHT22;16122;50.236;11.734;2022-09-01T15:41:07;20.00;62.80
29031;DHT22;16122;50.236;11.734;2022-09-01T15:43:33;20.00;62.70
29031;DHT22;16122;50.236;11.734;2022-09-01T15:45:59;20.00;62.80
29031;DHT22;16122;50.236;11.734;2022-09-01T15:48:28;20.00;62.90
29031;DHT22;16122;50.236;11.734;2022-09-01T15:53:42;20.00;62.70
29031;DHT22;16122;50.236;11.734;2022-09-01T15:56:08;20.00;62.70
29031;DHT22;16122;50.236;11.734;2022-09-01T15:58:34;20.00;62.70
29031;DHT22;16122;50.236;11.734;2022-09-01T16:00:59;20.00;62.70
29031;DHT22;16122;50.236;11.734;2022-09-01T16:03:26;20.00;62.70
29031;DHT22;16122;50.236;11.734;2022-09-01T16:05:55;20.00;62.80
29031;DHT22;16122;50.236;11.734;2022-09-01T16:08:20;20.00;62.80
29031;DHT22;16122;50.236;11.734;2022-09-01T16:10:46;20.00;58.80
29031;DHT22;16122;50.236;11.734;2022-09-01T16:13:12;20.00;58.00
29031;DHT22;16122;50.236;11.734;2022-09-01T16:15:47;19.90;57.60
29031;DHT22;16122;50.236;11.734;2022-09-01T16:18:45;19.90;56.00
29031;DHT22;16122;50.236;11.734;2022-09-01T16:21:28;19.90;56.40
29031;DHT22;16122;50.236;11.734;2022-09-01T16:23:57;19.80;55.30
29031;DHT22;16122;50.236;11.734;2022-09-01T16:26:29;19.90;55.10
29031;DHT22;16122;50.236;11.734;2022-09-01T16:28:56;19.90;55.90
29031;DHT22;16122;50.236;11.734;2022-09-01T16:31:26;19.80;55.50
29031;DHT22;16122;50.236;11.734;2022-09-01T16:33:58;19.80;54.70
29031;DHT22;16122;50.236;11.734;2022-09-01T16:40:19;19.80;57.70
29031;DHT22;16122;50.236;11.734;2022-09-01T16:45:04;19.90;58.10
29031;DHT22;16122;50.236;11.734;2022-09-01T17:09:10;19.90;59.00
29031;DHT22;16122;50.236;11.734;2022-09-01T17:11:52;19.90;59.00
29031;DHT22;16122;50.236;11.734;2022-09-01T17:14:33;19.90;59.10
29031;DHT22;16122;50.236;11.734;2022-09-01T17:17:11;19.90;59.10
29031;DHT22;16122;50.236;11.734;2022-09-01T17:19:40;19.90;59.20
29031;DHT22;16122;50.236;11.734;2022-09-01T17:22:09;19.90;59.20
29031;DHT22;16122;50.236;11.734;2022-09-01T17:24:42;19.90;59.30
29031;DHT22;16122;50.236;11.734;2022-09-01T17:27:24;19.90;59.30
29031;DHT22;16122;50.236;11.734;2022-09-01T17:29:53;19.90;59.40
29031;DHT22;16122;50.236;11.734;2022-09-01T17:41:05;20.00;59.60
29031;DHT22;16122;50.236;11.734;2022-09-01T17:49:44;20.00;59.80
29031;DHT22;16122;50.236;11.734;2022-09-01T17:55:42;19.90;59.80